sensor_id;sensor_type;location;lat;lon;timestamp;P1;durP1;ratioP1;P2;durP2;ratioP2
11653;SDS011;5883;48.818;9.114;2023-06-19T00:02:16;4.38;;;3.97;;
11653;SDS011;5883;48.818;9.114;2023-06-19T00:05:01;5.65;;;4.13;;
11653;SDS011;5883;48.818;9.114;2023-06-19T00:07:46;4.88;;;4.40;;
11653;SDS011;5883;48.818;9.114;2023-06-19T00:10:31;4.20;;;3.80;;
11653;SDS011;5883;48.818;9.114;2023-06-19T00:13:17;6.72;;;3.90;;
11653;SDS011;5883;48.818;9.114;2023-06-19T00:16:02;6.15;;;4.03;;
11653;SDS011;5883;48.818;9.114;2023-06-19T00:18:49;4.10;;;3.70;;
11653;SDS011;5883;48.818;9.114;2023-06-19T00:21:34;6.07;;;3.97;;
11653;SDS011;5883;48.818;9.114;2023-06-19T00:24:19;4.32;;;3.92;;
11653;SDS011;5883;48.818;9.114;2023-06-19T00:27:04;6.15;;;3.78;;
11653;SDS011;5883;48.818;9.114;2023-06-19T00:29:50;5.90;;;4.10;;
11653;SDS011;5883;48.818;9.114;2023-06-19T00:32:35;5.63;;;4.13;;
11653;SDS011;5883;48.818;9.114;2023-06-19T00:35:31;4.30;;;3.90;;
11653;SDS011;5883;48.818;9.114;2023-06-19T00:38:16;4.43;;;3.72;;
11653;SDS011;5883;48.818;9.114;2023-06-19T00:41:01;3.72;;;3.40;;
11653;SDS011;5883;48.818;9.114;2023-06-19T00:43:46;7.97;;;4.60;;
11653;SDS011;5883;48.818;9.114;2023-06-19T00:46:31;5.32;;;4.82;;
11653;SDS011;5883;48.818;9.114;2023-06-19T00:49:16;7.55;;;4.57;;
11653;SDS011;5883;48.818;9.114;2023-06-19T00:52:02;5.00;;;3.97;;
11653;SDS011;5883;48.818;9.114;2023-06-19T00:54:48;5.10;;;4.15;;
11653;SDS011;5883;48.818;9.114;2023-06-19T00:57:32;4.53;;;4.05;;
11653;SDS011;5883;48.818;9.114;2023-06-19T01:00:18;3.92;;;3.42;;
11653;SDS011;5883;48.818;9.114;2023-06-19T01:03:03;5.43;;;3.33;;
11653;SDS011;5883;48.818;9.114;2023-06-19T01:05:48;4.40;;;3.70;;
11653;SDS011;5883;48.818;9.114;2023-06-19T01:08:41;7.05;;;4.75;;
11653;SDS011;5883;48.818;9.114;2023-06-19T01:11:28;6.00;;;4.15;;
11653;SDS011;5883;48.818;9.114;2023-06-19T01:14:15;7.10;;;4.50;;
11653;SDS011;5883;48.818;9.114;2023-06-19T01:17:02;6.70;;;4.25;;
11653;SDS011;5883;48.818;9.114;2023-06-19T01:19:48;5.47;;;3.83;;
11653;SDS011;5883;48.818;9.114;2023-06-19T01:22:35;6.53;;;3.60;;
11653;SDS011;5883;48.818;9.114;2023-06-19T01:25:20;9.52;;;3.45;;
11653;SDS011;5883;48.818;9.114;2023-06-19T01:28:06;6.40;;;3.00;;
11653;SDS011;5883;48.818;9.114;2023-06-19T01:30:53;3.45;;;3.08;;
11653;SDS011;5883;48.818;9.114;2023-06-19T01:33:40;3.88;;;2.75;;
11653;SDS011;5883;48.818;9.114;2023-06-19T01:36:27;3.75;;;3.00;;
11653;SDS011;5883;48.818;9.114;2023-06-19T01:39:15;3.30;;;3.00;;
11653;SDS011;5883;48.818;9.114;2023-06-19T01:42:00;3.00;;;2.70;;
11653;SDS011;5883;48.818;9.114;2023-06-19T01:44:45;4.18;;;2.88;;
11653;SDS011;5883;48.818;9.114;2023-06-19T01:47:30;6.03;;;3.00;;
11653;SDS011;5883;48.818;9.114;2023-06-19T01:50:15;3.63;;;3.20;;
11653;SDS011;5883;48.818;9.114;2023-06-19T01:53:00;3.60;;;2.90;;
11653;SDS011;5883;48.818;9.114;2023-06-19T01:55:47;2.92;;;2.63;;
11653;SDS011;5883;48.818;9.114;2023-06-19T01:58:32;5.85;;;2.95;;
11653;SDS011;5883;48.818;9.114;2023-06-19T02:01:17;7.28;;;3.03;;
11653;SDS011;5883;48.818;9.114;2023-06-19T02:04:02;3.17;;;2.70;;
11653;SDS011;5883;48.818;9.114;2023-06-19T02:06:48;4.68;;;3.00;;
11653;SDS011;5883;48.818;9.114;2023-06-19T02:09:33;7.47;;;2.80;;
11653;SDS011;5883;48.818;9.114;2023-06-19T02:12:19;3.22;;;2.92;;
11653;SDS011;5883;48.818;9.114;2023-06-19T02:15:04;3.42;;;3.13;;
11653;SDS011;5883;48.818;9.114;2023-06-19T02:17:49;3.20;;;2.90;;
11653;SDS011;5883;48.818;9.114;2023-06-19T02:20:38;7.38;;;2.88;;
11653;SDS011;5883;48.818;9.114;2023-06-19T02:23:23;4.03;;;2.97;;
11653;SDS011;5883;48.818;9.114;2023-06-19T02:26:09;3.40;;;2.90;;
11653;SDS011;5883;48.818;9.114;2023-06-19T02:28:55;3.15;;;2.85;;
11653;SDS011;5883;48.818;9.114;2023-06-19T02:31:40;3.53;;;2.88;;
11653;SDS011;5883;48.818;9.114;2023-06-19T02:34:26;5.97;;;2.53;;
11653;SDS011;5883;48.818;9.114;2023-06-19T02:37:11;2.85;;;2.50;;
11653;SDS011;5883;48.818;9.114;2023-06-19T02:39:56;4.28;;;2.70;;
11653;SDS011;5883;48.818;9.114;2023-06-19T02:42:41;5.05;;;2.60;;
11653;SDS011;5883;48.818;9.114;2023-06-19T02:45:28;4.05;;;2.90;;
11653;SDS011;5883;48.818;9.114;2023-06-19T02:48:13;2.80;;;2.60;;
11653;SDS011;5883;48.818;9.114;2023-06-19T02:50:58;3.88;;;2.67;;
11653;SDS011;5883;48.818;9.114;2023-06-19T02:53:43;2.40;;;2.20;;
11653;SDS011;5883;48.818;9.114;2023-06-19T02:56:28;2.58;;;2.38;;
11653;SDS011;5883;48.818;9.114;2023-06-19T02:59:13;3.33;;;2.67;;
11653;SDS011;5883;48.818;9.114;2023-06-19T03:02:00;3.05;;;2.53;;
11653;SDS011;5883;48.818;9.114;2023-06-19T03:04:45;3.13;;;2.50;;
11653;SDS011;5883;48.818;9.114;2023-06-19T03:07:30;3.08;;;2.45;;
11653;SDS011;5883;48.818;9.114;2023-06-19T03:10:15;5.18;;;2.58;;
11653;SDS011;5883;48.818;9.114;2023-06-19T03:13:00;2.75;;;2.40;;
11653;SDS011;5883;48.818;9.114;2023-06-19T03:15:45;2.97;;;2.38;;
11653;SDS011;5883;48.818;9.114;2023-06-19T03:18:32;4.13;;;2.45;;
11653;SDS011;5883;48.818;9.114;2023-06-19T03:21:17;3.63;;;2.50;;
11653;SDS011;5883;48.818;9.114;2023-06-19T03:24:03;3.08;;;2.30;;
11653;SDS011;5883;48.818;9.114;2023-06-19T03:26:48;3.55;;;2.10;;
11653;SDS011;5883;48.818;9.114;2023-06-19T03:29:33;3.60;;;2.25;;
11653;SDS011;5883;48.818;9.114;2023-06-19T03:32:18;2.00;;;1.85;;
11653;SDS011;5883;48.818;9.114;2023-06-19T03:35:05;2.47;;;2.10;;
11653;SDS011;5883;48.818;9.114;2023-06-19T03:37:50;3.47;;;2.03;;
11653;SDS011;5883;48.818;9.114;2023-06-19T03:40:35;2.38;;;2.17;;
11653;SDS011;5883;48.818;9.114;2023-06-19T03:43:20;3.10;;;1.95;;
11653;SDS011;5883;48.818;9.114;2023-06-19T03:46:05;4.35;;;1.90;;
11653;SDS011;5883;48.818;9.114;2023-06-19T03:48:50;2.10;;;1.90;;
11653;SDS011;5883;48.818;9.114;2023-06-19T03:51:36;2.63;;;1.95;;
11653;SDS011;5883;48.818;9.114;2023-06-19T03:54:21;2.40;;;2.10;;
11653;SDS011;5883;48.818;9.114;2023-06-19T03:57:06;2.40;;;2.20;;
11653;SDS011;5883;48.818;9.114;2023-06-19T03:59:52;2.20;;;2.00;;
11653;SDS011;5883;48.818;9.114;2023-06-19T04:02:37;2.22;;;1.88;;
11653;SDS011;5883;48.818;9.114;2023-06-19T04:05:22;2.40;;;2.20;;
11653;SDS011;5883;48.818;9.114;2023-06-19T04:08:09;3.78;;;1.98;;
11653;SDS011;5883;48.818;9.114;2023-06-19T04:10:54;2.28;;;2.08;;
11653;SDS011;5883;48.818;9.114;2023-06-19T04:13:39;1.98;;;1.80;;
11653;SDS011;5883;48.818;9.114;2023-06-19T04:16:24;2.47;;;2.22;;
11653;SDS011;5883;48.818;9.114;2023-06-19T04:19:09;2.55;;;2.20;;
11653;SDS011;5883;48.818;9.114;2023-06-19T04:21:54;3.28;;;2.08;;
11653;SDS011;5883;48.818;9.114;2023-06-19T04:24:40;3.30;;;2.25;;
11653;SDS011;5883;48.818;9.114;2023-06-19T04:27:25;2.67;;;2.30;;
11653;SDS011;5883;48.818;9.114;2023-06-19T04:30:11;2.10;;;1.90;;
11653;SDS011;5883;48.818;9.114;2023-06-19T04:32:56;2.85;;;2.10;;
11653;SDS011;5883;48.818;9.114;2023-06-19T04:35:41;2.00;;;1.80;;
11653;SDS011;5883;48.818;9.114;2023-06-19T04:38:26;3.38;;;1.85;;
11653;SDS011;5883;48.818;9.114;2023-06-19T04:41:12;2.42;;;2.05;;
11653;SDS011;5883;48.818;9.114;2023-06-19T04:43:58;2.22;;;2.03;;
11653;SDS011;5883;48.818;9.114;2023-06-19T04:46:47;2.22;;;1.98;;
11653;SDS011;5883;48.818;9.114;2023-06-19T04:49:32;3.35;;;2.00;;
11653;SDS011;5883;48.818;9.114;2023-06-19T04:52:17;2.13;;;1.92;;
11653;SDS011;5883;48.818;9.114;2023-06-19T04:55:04;2.10;;;1.90;;
11653;SDS011;5883;48.818;9.114;2023-06-19T04:57:51;3.88;;;1.83;;
11653;SDS011;5883;48.818;9.114;2023-06-19T05:00:38;3.63;;;2.28;;
11653;SDS011;5883;48.818;9.114;2023-06-19T05:03:23;2.58;;;2.25;;
11653;SDS011;5883;48.818;9.114;2023-06-19T05:06:09;2.55;;;2.10;;
11653;SDS011;5883;48.818;9.114;2023-06-19T05:08:54;2.08;;;1.63;;
11653;SDS011;5883;48.818;9.114;2023-06-19T05:11:39;2.47;;;1.90;;
11653;SDS011;5883;48.818;9.114;2023-06-19T05:14:26;1.80;;;1.58;;
11653;SDS011;5883;48.818;9.114;2023-06-19T05:17:11;4.90;;;1.73;;
11653;SDS011;5883;48.818;9.114;2023-06-19T05:19:56;1.67;;;1.58;;
11653;SDS011;5883;48.818;9.114;2023-06-19T05:22:41;2.38;;;1.77;;
11653;SDS011;5883;48.818;9.114;2023-06-19T05:25:29;2.95;;;1.70;;
11653;SDS011;5883;48.818;9.114;2023-06-19T05:28:14;2.00;;;1.80;;
11653;SDS011;5883;48.818;9.114;2023-06-19T05:31:01;2.90;;;1.58;;
11653;SDS011;5883;48.818;9.114;2023-06-19T05:33:46;1.75;;;1.63;;
11653;SDS011;5883;48.818;9.114;2023-06-19T05:36:31;3.00;;;1.85;;
11653;SDS011;5883;48.818;9.114;2023-06-19T05:39:15;4.07;;;1.90;;
11653;SDS011;5883;48.818;9.114;2023-06-19T05:42:02;2.10;;;1.60;;
11653;SDS011;5883;48.818;9.114;2023-06-19T05:44:47;2.72;;;1.70;;
11653;SDS011;5883;48.818;9.114;2023-06-19T05:47:34;3.47;;;2.45;;
11653;SDS011;5883;48.818;9.114;2023-06-19T05:50:19;1.92;;;1.73;;
11653;SDS011;5883;48.818;9.114;2023-06-19T05:53:04;4.85;;;1.70;;
11653;SDS011;5883;48.818;9.114;2023-06-19T05:55:50;1.92;;;1.60;;
11653;SDS011;5883;48.818;9.114;2023-06-19T05:58:35;2.75;;;1.92;;
11653;SDS011;5883;48.818;9.114;2023-06-19T06:01:21;2.10;;;1.90;;
11653;SDS011;5883;48.818;9.114;2023-06-19T06:04:07;1.98;;;1.63;;
11653;SDS011;5883;48.818;9.114;2023-06-19T06:06:52;2.10;;;1.90;;
11653;SDS011;5883;48.818;9.114;2023-06-19T06:09:38;2.47;;;2.05;;
11653;SDS011;5883;48.818;9.114;2023-06-19T06:12:23;3.30;;;1.83;;
11653;SDS011;5883;48.818;9.114;2023-06-19T06:15:08;2.03;;;1.80;;
11653;SDS011;5883;48.818;9.114;2023-06-19T06:17:53;2.13;;;1.70;;
11653;SDS011;5883;48.818;9.114;2023-06-19T06:20:39;1.88;;;1.77;;
11653;SDS011;5883;48.818;9.114;2023-06-19T06:23:24;1.70;;;1.60;;
11653;SDS011;5883;48.818;9.114;2023-06-19T06:26:09;1.95;;;1.65;;
11653;SDS011;5883;48.818;9.114;2023-06-19T06:28:54;1.83;;;1.63;;
11653;SDS011;5883;48.818;9.114;2023-06-19T06:31:40;1.88;;;1.55;;
11653;SDS011;5883;48.818;9.114;2023-06-19T06:34:25;2.10;;;1.80;;
11653;SDS011;5883;48.818;9.114;2023-06-19T06:37:11;1.83;;;1.73;;
11653;SDS011;5883;48.818;9.114;2023-06-19T06:40:01;1.90;;;1.70;;
11653;SDS011;5883;48.818;9.114;2023-06-19T06:42:52;2.10;;;1.58;;
11653;SDS011;5883;48.818;9.114;2023-06-19T06:45:37;1.50;;;1.40;;
11653;SDS011;5883;48.818;9.114;2023-06-19T06:48:22;1.45;;;1.35;;
11653;SDS011;5883;48.818;9.114;2023-06-19T06:51:08;2.00;;;1.50;;
11653;SDS011;5883;48.818;9.114;2023-06-19T06:53:56;3.85;;;1.60;;
11653;SDS011;5883;48.818;9.114;2023-06-19T06:56:42;3.25;;;1.70;;
11653;SDS011;5883;48.818;9.114;2023-06-19T06:59:31;2.45;;;1.70;;
11653;SDS011;5883;48.818;9.114;2023-06-19T07:02:16;1.63;;;1.50;;
11653;SDS011;5883;48.818;9.114;2023-06-19T07:05:01;3.47;;;1.30;;
11653;SDS011;5883;48.818;9.114;2023-06-19T07:07:46;2.05;;;1.52;;
11653;SDS011;5883;48.818;9.114;2023-06-19T07:10:33;1.85;;;1.63;;
11653;SDS011;5883;48.818;9.114;2023-06-19T07:13:18;3.35;;;1.80;;
11653;SDS011;5883;48.818;9.114;2023-06-19T07:16:03;1.83;;;1.65;;
11653;SDS011;5883;48.818;9.114;2023-06-19T07:18:49;1.90;;;1.52;;
11653;SDS011;5883;48.818;9.114;2023-06-19T07:21:34;1.77;;;1.45;;
11653;SDS011;5883;48.818;9.114;2023-06-19T07:24:19;1.77;;;1.40;;
11653;SDS011;5883;48.818;9.114;2023-06-19T07:27:05;1.30;;;1.20;;
11653;SDS011;5883;48.818;9.114;2023-06-19T07:29:51;2.97;;;1.65;;
11653;SDS011;5883;48.818;9.114;2023-06-19T07:32:36;1.92;;;1.65;;
11653;SDS011;5883;48.818;9.114;2023-06-19T07:35:21;2.70;;;1.38;;
11653;SDS011;5883;48.818;9.114;2023-06-19T07:38:06;1.85;;;1.67;;
11653;SDS011;5883;48.818;9.114;2023-06-19T07:40:52;2.92;;;1.75;;
11653;SDS011;5883;48.818;9.114;2023-06-19T07:43:38;1.50;;;1.35;;
11653;SDS011;5883;48.818;9.114;2023-06-19T07:46:23;3.17;;;1.80;;
11653;SDS011;5883;48.818;9.114;2023-06-19T07:49:08;1.58;;;1.27;;
11653;SDS011;5883;48.818;9.114;2023-06-19T07:51:53;1.92;;;1.70;;
11653;SDS011;5883;48.818;9.114;2023-06-19T07:54:47;3.70;;;1.50;;
11653;SDS011;5883;48.818;9.114;2023-06-19T07:57:32;3.15;;;1.63;;
11653;SDS011;5883;48.818;9.114;2023-06-19T08:00:19;2.55;;;1.40;;
11653;SDS011;5883;48.818;9.114;2023-06-19T08:03:07;1.58;;;1.38;;
11653;SDS011;5883;48.818;9.114;2023-06-19T08:05:51;1.40;;;1.30;;
11653;SDS011;5883;48.818;9.114;2023-06-19T08:08:37;3.35;;;1.40;;
11653;SDS011;5883;48.818;9.114;2023-06-19T08:11:22;1.35;;;1.23;;
11653;SDS011;5883;48.818;9.114;2023-06-19T08:14:07;1.75;;;1.65;;
11653;SDS011;5883;48.818;9.114;2023-06-19T08:16:53;3.47;;;1.88;;
11653;SDS011;5883;48.818;9.114;2023-06-19T08:19:38;1.60;;;1.30;;
11653;SDS011;5883;48.818;9.114;2023-06-19T08:22:24;5.32;;;1.70;;
11653;SDS011;5883;48.818;9.114;2023-06-19T08:25:09;8.30;;;1.40;;
11653;SDS011;5883;48.818;9.114;2023-06-19T08:27:54;1.88;;;1.50;;
11653;SDS011;5883;48.818;9.114;2023-06-19T08:30:39;2.55;;;1.30;;
11653;SDS011;5883;48.818;9.114;2023-06-19T08:33:25;1.55;;;1.45;;
11653;SDS011;5883;48.818;9.114;2023-06-19T08:36:10;1.70;;;1.20;;
11653;SDS011;5883;48.818;9.114;2023-06-19T08:38:55;3.35;;;1.50;;
11653;SDS011;5883;48.818;9.114;2023-06-19T08:41:40;3.47;;;1.73;;
11653;SDS011;5883;48.818;9.114;2023-06-19T08:44:25;2.53;;;1.50;;
11653;SDS011;5883;48.818;9.114;2023-06-19T08:47:10;6.35;;;1.92;;
11653;SDS011;5883;48.818;9.114;2023-06-19T08:49:58;2.80;;;1.60;;
11653;SDS011;5883;48.818;9.114;2023-06-19T08:52:43;1.58;;;1.45;;
11653;SDS011;5883;48.818;9.114;2023-06-19T08:55:28;3.10;;;1.30;;
11653;SDS011;5883;48.818;9.114;2023-06-19T08:58:19;1.73;;;1.58;;
11653;SDS011;5883;48.818;9.114;2023-06-19T09:01:05;1.63;;;1.42;;
11653;SDS011;5883;48.818;9.114;2023-06-19T09:03:50;1.70;;;1.30;;
11653;SDS011;5883;48.818;9.114;2023-06-19T09:06:37;3.08;;;1.70;;
11653;SDS011;5883;48.818;9.114;2023-06-19T09:09:31;1.60;;;1.50;;
11653;SDS011;5883;48.818;9.114;2023-06-19T09:12:16;1.80;;;1.42;;
11653;SDS011;5883;48.818;9.114;2023-06-19T09:15:01;2.47;;;1.50;;
11653;SDS011;5883;48.818;9.114;2023-06-19T09:17:46;1.50;;;1.40;;
11653;SDS011;5883;48.818;9.114;2023-06-19T09:20:32;2.13;;;1.35;;
11653;SDS011;5883;48.818;9.114;2023-06-19T09:23:19;2.33;;;1.67;;
11653;SDS011;5883;48.818;9.114;2023-06-19T09:26:04;2.33;;;1.63;;
11653;SDS011;5883;48.818;9.114;2023-06-19T09:28:49;1.73;;;1.63;;
11653;SDS011;5883;48.818;9.114;2023-06-19T09:31:35;1.95;;;1.70;;
11653;SDS011;5883;48.818;9.114;2023-06-19T09:34:20;1.63;;;1.52;;
11653;SDS011;5883;48.818;9.114;2023-06-19T09:37:09;23.58;;;6.15;;
11653;SDS011;5883;48.818;9.114;2023-06-19T09:39:56;3.00;;;1.70;;
11653;SDS011;5883;48.818;9.114;2023-06-19T09:42:42;1.70;;;1.60;;
11653;SDS011;5883;48.818;9.114;2023-06-19T09:45:27;2.05;;;1.67;;
11653;SDS011;5883;48.818;9.114;2023-06-19T09:48:13;1.85;;;1.75;;
11653;SDS011;5883;48.818;9.114;2023-06-19T09:51:00;1.95;;;1.55;;
11653;SDS011;5883;48.818;9.114;2023-06-19T09:53:47;2.00;;;1.73;;
11653;SDS011;5883;48.818;9.114;2023-06-19T09:56:36;5.22;;;2.10;;
11653;SDS011;5883;48.818;9.114;2023-06-19T09:59:22;3.25;;;2.17;;
11653;SDS011;5883;48.818;9.114;2023-06-19T10:02:07;2.17;;;1.85;;
11653;SDS011;5883;48.818;9.114;2023-06-19T10:04:53;4.13;;;2.28;;
11653;SDS011;5883;48.818;9.114;2023-06-19T10:07:40;2.22;;;1.80;;
11653;SDS011;5883;48.818;9.114;2023-06-19T10:10:27;3.65;;;1.98;;
11653;SDS011;5883;48.818;9.114;2023-06-19T10:13:14;5.70;;;2.03;;
11653;SDS011;5883;48.818;9.114;2023-06-19T10:15:59;3.72;;;2.05;;
11653;SDS011;5883;48.818;9.114;2023-06-19T10:18:45;3.08;;;1.88;;
11653;SDS011;5883;48.818;9.114;2023-06-19T10:21:43;6.53;;;1.90;;
11653;SDS011;5883;48.818;9.114;2023-06-19T10:24:28;2.97;;;1.85;;
11653;SDS011;5883;48.818;9.114;2023-06-19T10:27:20;3.05;;;2.10;;
11653;SDS011;5883;48.818;9.114;2023-06-19T10:30:07;2.17;;;1.80;;
11653;SDS011;5883;48.818;9.114;2023-06-19T10:33:00;4.75;;;2.40;;
11653;SDS011;5883;48.818;9.114;2023-06-19T10:35:47;2.35;;;1.88;;
11653;SDS011;5883;48.818;9.114;2023-06-19T10:38:32;1.95;;;1.63;;
11653;SDS011;5883;48.818;9.114;2023-06-19T10:41:17;2.55;;;2.03;;
11653;SDS011;5883;48.818;9.114;2023-06-19T10:44:03;1.63;;;1.52;;
11653;SDS011;5883;48.818;9.114;2023-06-19T10:46:50;2.10;;;1.90;;
11653;SDS011;5883;48.818;9.114;2023-06-19T10:49:37;2.55;;;1.80;;
11653;SDS011;5883;48.818;9.114;2023-06-19T10:52:22;6.45;;;2.00;;
11653;SDS011;5883;48.818;9.114;2023-06-19T10:55:08;2.47;;;2.00;;
11653;SDS011;5883;48.818;9.114;2023-06-19T10:57:54;4.85;;;1.92;;
11653;SDS011;5883;48.818;9.114;2023-06-19T11:00:39;2.05;;;1.80;;
11653;SDS011;5883;48.818;9.114;2023-06-19T11:03:25;1.92;;;1.75;;
11653;SDS011;5883;48.818;9.114;2023-06-19T11:06:11;6.68;;;2.33;;
11653;SDS011;5883;48.818;9.114;2023-06-19T11:08:55;2.58;;;2.00;;
11653;SDS011;5883;48.818;9.114;2023-06-19T11:11:41;2.20;;;1.88;;
11653;SDS011;5883;48.818;9.114;2023-06-19T11:14:28;2.10;;;1.67;;
11653;SDS011;5883;48.818;9.114;2023-06-19T11:17:14;2.25;;;1.90;;
11653;SDS011;5883;48.818;9.114;2023-06-19T11:20:00;5.95;;;2.72;;
11653;SDS011;5883;48.818;9.114;2023-06-19T11:22:53;2.47;;;2.28;;
11653;SDS011;5883;48.818;9.114;2023-06-19T11:25:39;2.97;;;2.45;;
11653;SDS011;5883;48.818;9.114;2023-06-19T11:28:26;3.05;;;2.30;;
11653;SDS011;5883;48.818;9.114;2023-06-19T11:31:13;3.15;;;2.40;;
11653;SDS011;5883;48.818;9.114;2023-06-19T11:33:59;2.17;;;1.98;;
11653;SDS011;5883;48.818;9.114;2023-06-19T11:36:46;2.53;;;2.00;;
11653;SDS011;5883;48.818;9.114;2023-06-19T11:39:32;2.72;;;2.00;;
11653;SDS011;5883;48.818;9.114;2023-06-19T11:42:17;2.17;;;1.88;;
11653;SDS011;5883;48.818;9.114;2023-06-19T11:45:02;4.03;;;2.30;;
11653;SDS011;5883;48.818;9.114;2023-06-19T11:47:50;2.42;;;1.90;;
11653;SDS011;5883;48.818;9.114;2023-06-19T11:50:34;2.28;;;2.05;;
11653;SDS011;5883;48.818;9.114;2023-06-19T11:53:22;2.80;;;2.03;;
11653;SDS011;5883;48.818;9.114;2023-06-19T11:56:07;2.22;;;1.83;;
11653;SDS011;5883;48.818;9.114;2023-06-19T11:58:52;2.67;;;1.98;;
11653;SDS011;5883;48.818;9.114;2023-06-19T12:01:37;3.72;;;2.10;;
11653;SDS011;5883;48.818;9.114;2023-06-19T12:04:23;4.95;;;2.05;;
11653;SDS011;5883;48.818;9.114;2023-06-19T12:07:08;2.90;;;2.08;;
11653;SDS011;5883;48.818;9.114;2023-06-19T12:09:54;4.20;;;2.20;;
11653;SDS011;5883;48.818;9.114;2023-06-19T12:12:39;2.40;;;2.10;;
11653;SDS011;5883;48.818;9.114;2023-06-19T12:15:24;2.20;;;1.98;;
11653;SDS011;5883;48.818;9.114;2023-06-19T12:18:10;2.58;;;2.17;;
11653;SDS011;5883;48.818;9.114;2023-06-19T12:20:56;4.85;;;2.00;;
11653;SDS011;5883;48.818;9.114;2023-06-19T12:23:41;3.58;;;1.98;;
11653;SDS011;5883;48.818;9.114;2023-06-19T12:26:27;4.22;;;2.22;;
11653;SDS011;5883;48.818;9.114;2023-06-19T12:29:12;2.35;;;2.15;;
11653;SDS011;5883;48.818;9.114;2023-06-19T12:31:59;4.22;;;2.03;;
11653;SDS011;5883;48.818;9.114;2023-06-19T12:34:44;4.80;;;2.28;;
11653;SDS011;5883;48.818;9.114;2023-06-19T12:37:31;3.78;;;2.20;;
11653;SDS011;5883;48.818;9.114;2023-06-19T12:40:16;5.00;;;2.63;;
11653;SDS011;5883;48.818;9.114;2023-06-19T12:43:02;2.58;;;2.38;;
11653;SDS011;5883;48.818;9.114;2023-06-19T12:45:48;3.35;;;2.58;;
11653;SDS011;5883;48.818;9.114;2023-06-19T12:48:33;3.97;;;2.70;;
11653;SDS011;5883;48.818;9.114;2023-06-19T12:51:18;3.72;;;2.17;;
11653;SDS011;5883;48.818;9.114;2023-06-19T12:54:03;3.38;;;2.25;;
11653;SDS011;5883;48.818;9.114;2023-06-19T12:56:49;2.58;;;2.03;;
11653;SDS011;5883;48.818;9.114;2023-06-19T12:59:35;4.85;;;2.35;;
11653;SDS011;5883;48.818;9.114;2023-06-19T13:02:20;2.83;;;2.28;;
11653;SDS011;5883;48.818;9.114;2023-06-19T13:05:05;3.90;;;2.22;;
11653;SDS011;5883;48.818;9.114;2023-06-19T13:07:50;2.85;;;2.40;;
11653;SDS011;5883;48.818;9.114;2023-06-19T13:10:35;2.33;;;2.13;;
11653;SDS011;5883;48.818;9.114;2023-06-19T13:13:22;2.28;;;1.90;;
11653;SDS011;5883;48.818;9.114;2023-06-19T13:16:09;2.80;;;2.30;;
11653;SDS011;5883;48.818;9.114;2023-06-19T13:18:54;2.60;;;1.95;;
11653;SDS011;5883;48.818;9.114;2023-06-19T13:21:40;3.38;;;2.08;;
11653;SDS011;5883;48.818;9.114;2023-06-19T13:24:25;3.35;;;2.53;;
11653;SDS011;5883;48.818;9.114;2023-06-19T13:27:11;3.72;;;2.40;;
11653;SDS011;5883;48.818;9.114;2023-06-19T13:29:55;2.47;;;2.28;;
11653;SDS011;5883;48.818;9.114;2023-06-19T13:32:42;4.85;;;2.20;;
11653;SDS011;5883;48.818;9.114;2023-06-19T13:35:27;4.60;;;2.10;;
11653;SDS011;5883;48.818;9.114;2023-06-19T13:38:14;2.03;;;1.80;;
11653;SDS011;5883;48.818;9.114;2023-06-19T13:40:59;4.80;;;2.13;;
11653;SDS011;5883;48.818;9.114;2023-06-19T13:43:44;2.97;;;2.10;;
11653;SDS011;5883;48.818;9.114;2023-06-19T13:46:31;2.78;;;2.08;;
11653;SDS011;5883;48.818;9.114;2023-06-19T13:49:20;7.28;;;2.47;;
11653;SDS011;5883;48.818;9.114;2023-06-19T13:52:05;2.35;;;2.15;;
11653;SDS011;5883;48.818;9.114;2023-06-19T13:54:50;5.25;;;2.22;;
11653;SDS011;5883;48.818;9.114;2023-06-19T13:57:35;2.72;;;2.42;;
11653;SDS011;5883;48.818;9.114;2023-06-19T14:00:21;3.65;;;2.13;;
11653;SDS011;5883;48.818;9.114;2023-06-19T14:03:06;3.17;;;2.38;;
11653;SDS011;5883;48.818;9.114;2023-06-19T14:05:52;3.83;;;2.05;;
11653;SDS011;5883;48.818;9.114;2023-06-19T14:08:37;3.03;;;1.90;;
11653;SDS011;5883;48.818;9.114;2023-06-19T14:11:23;7.07;;;2.00;;
11653;SDS011;5883;48.818;9.114;2023-06-19T14:14:08;2.00;;;1.80;;
11653;SDS011;5883;48.818;9.114;2023-06-19T14:16:53;6.28;;;2.50;;
11653;SDS011;5883;48.818;9.114;2023-06-19T14:19:38;4.10;;;2.00;;
11653;SDS011;5883;48.818;9.114;2023-06-19T14:22:28;3.25;;;2.10;;
11653;SDS011;5883;48.818;9.114;2023-06-19T14:25:12;2.90;;;2.00;;
11653;SDS011;5883;48.818;9.114;2023-06-19T14:27:58;2.00;;;1.85;;
11653;SDS011;5883;48.818;9.114;2023-06-19T14:30:43;3.90;;;2.20;;
11653;SDS011;5883;48.818;9.114;2023-06-19T14:33:28;2.90;;;2.33;;
11653;SDS011;5883;48.818;9.114;2023-06-19T14:36:12;2.75;;;2.15;;
11653;SDS011;5883;48.818;9.114;2023-06-19T14:38:59;2.20;;;2.00;;
11653;SDS011;5883;48.818;9.114;2023-06-19T14:41:44;2.88;;;2.30;;
11653;SDS011;5883;48.818;9.114;2023-06-19T14:44:29;2.45;;;2.08;;
11653;SDS011;5883;48.818;9.114;2023-06-19T14:47:14;2.35;;;2.15;;
11653;SDS011;5883;48.818;9.114;2023-06-19T14:49:58;5.18;;;2.10;;
11653;SDS011;5883;48.818;9.114;2023-06-19T14:52:44;9.30;;;2.40;;
11653;SDS011;5883;48.818;9.114;2023-06-19T14:55:30;3.28;;;2.35;;
11653;SDS011;5883;48.818;9.114;2023-06-19T14:58:15;3.47;;;2.33;;
11653;SDS011;5883;48.818;9.114;2023-06-19T15:01:00;2.40;;;2.20;;
11653;SDS011;5883;48.818;9.114;2023-06-19T15:03:45;2.30;;;2.10;;
11653;SDS011;5883;48.818;9.114;2023-06-19T15:06:30;4.43;;;2.65;;
11653;SDS011;5883;48.818;9.114;2023-06-19T15:09:15;3.47;;;2.10;;
11653;SDS011;5883;48.818;9.114;2023-06-19T15:12:02;3.38;;;2.03;;
11653;SDS011;5883;48.818;9.114;2023-06-19T15:14:47;3.78;;;2.40;;
11653;SDS011;5883;48.818;9.114;2023-06-19T15:17:32;2.42;;;2.00;;
11653;SDS011;5883;48.818;9.114;2023-06-19T15:20:18;2.90;;;2.08;;
11653;SDS011;5883;48.818;9.114;2023-06-19T15:23:04;2.55;;;2.10;;
11653;SDS011;5883;48.818;9.114;2023-06-19T15:25:49;3.78;;;2.00;;
11653;SDS011;5883;48.818;9.114;2023-06-19T15:28:37;2.50;;;2.00;;
11653;SDS011;5883;48.818;9.114;2023-06-19T15:31:22;9.23;;;2.00;;
11653;SDS011;5883;48.818;9.114;2023-06-19T15:34:07;2.55;;;2.25;;
11653;SDS011;5883;48.818;9.114;2023-06-19T15:36:52;2.30;;;2.10;;
11653;SDS011;5883;48.818;9.114;2023-06-19T15:39:37;2.88;;;1.83;;
11653;SDS011;5883;48.818;9.114;2023-06-19T15:42:22;2.80;;;2.28;;
11653;SDS011;5883;48.818;9.114;2023-06-19T15:45:09;3.97;;;2.17;;
11653;SDS011;5883;48.818;9.114;2023-06-19T15:47:57;2.40;;;2.20;;
11653;SDS011;5883;48.818;9.114;2023-06-19T15:50:41;2.97;;;2.40;;
11653;SDS011;5883;48.818;9.114;2023-06-19T15:53:26;2.88;;;2.10;;
11653;SDS011;5883;48.818;9.114;2023-06-19T15:56:11;4.90;;;2.15;;
11653;SDS011;5883;48.818;9.114;2023-06-19T15:58:56;3.05;;;2.65;;
11653;SDS011;5883;48.818;9.114;2023-06-19T16:01:43;3.42;;;2.38;;
11653;SDS011;5883;48.818;9.114;2023-06-19T16:04:28;2.33;;;2.05;;
11653;SDS011;5883;48.818;9.114;2023-06-19T16:07:13;2.90;;;2.28;;
11653;SDS011;5883;48.818;9.114;2023-06-19T16:09:58;3.47;;;2.35;;
11653;SDS011;5883;48.818;9.114;2023-06-19T16:12:43;3.55;;;2.88;;
11653;SDS011;5883;48.818;9.114;2023-06-19T16:15:28;2.92;;;2.28;;
11653;SDS011;5883;48.818;9.114;2023-06-19T16:18:17;3.35;;;2.60;;
11653;SDS011;5883;48.818;9.114;2023-06-19T16:21:02;4.55;;;2.55;;
11653;SDS011;5883;48.818;9.114;2023-06-19T16:23:47;5.50;;;2.60;;
11653;SDS011;5883;48.818;9.114;2023-06-19T16:26:32;3.05;;;2.72;;
11653;SDS011;5883;48.818;9.114;2023-06-19T16:29:18;3.50;;;2.80;;
11653;SDS011;5883;48.818;9.114;2023-06-19T16:32:03;6.28;;;3.35;;
11653;SDS011;5883;48.818;9.114;2023-06-19T16:34:51;5.25;;;3.08;;
11653;SDS011;5883;48.818;9.114;2023-06-19T16:37:36;2.80;;;2.55;;
11653;SDS011;5883;48.818;9.114;2023-06-19T16:40:22;5.18;;;2.92;;
11653;SDS011;5883;48.818;9.114;2023-06-19T16:43:08;3.78;;;2.50;;
11653;SDS011;5883;48.818;9.114;2023-06-19T16:45:54;3.75;;;2.92;;
11653;SDS011;5883;48.818;9.114;2023-06-19T16:48:39;3.70;;;2.75;;
11653;SDS011;5883;48.818;9.114;2023-06-19T16:51:25;9.75;;;2.88;;
11653;SDS011;5883;48.818;9.114;2023-06-19T16:54:10;3.15;;;2.20;;